INFORMACIÓN METAR y TAF
METAR FOR LCLK
ADDS - METARS form results

(0737 UTC 20 January 2020)
Data provider http://aviationweather.gov/metar/data/
 
METAR text: LCLK 200730Z 03014KT 9999 FEW030 14/06 Q1022 NOSIG
Conditions at: LCLK (LARNACA/LARNAX A, CY) observed 0730 UTC 20 January 2020
Temperature: 14.0°C (57°F)
Dewpoint: 6.0°C (43°F) [RH = 58%]
Pressure (altimeter): 30.18 inches Hg (1022.0 mb)
Winds: from the NNE (30 degrees) at 16 MPH (14 knots; 7.2 m/s)
Visibility: 6 or more miles (10+ km)
Ceiling: at least 12,000 feet AGL
Clouds: few clouds at 3000 feet AGL
Weather: no significant weather observed at this time

METAR text: LCLK 200700Z 04014KT 9999 FEW030 SCT060 13/07 Q1022 NOSIG
Conditions at: LCLK (LARNACA/LARNAX A, CY) observed 0700 UTC 20 January 2020
Temperature: 13.0°C (55°F)
Dewpoint: 7.0°C (45°F) [RH = 67%]
Pressure (altimeter): 30.18 inches Hg (1022.0 mb)
Winds: from the NE (40 degrees) at 16 MPH (14 knots; 7.2 m/s)
Visibility: 6 or more miles (10+ km)
Ceiling: at least 12,000 feet AGL
Clouds: few clouds at 3000 feet AGL
scattered clouds at 6000 feet AGL
Weather: no significant weather observed at this time

Forecast for: LCLK (LARNACA/LARNAX A, CY)
Text: TAF LCLK 200530Z 2006/2106 01015KT 9999 FEW020 SCT050
Forecast period: 0600 UTC 20 January 2020 to 0600 UTC 21 January 2020
Forecast type: FROM: standard forecast or significant change
Winds: from the N (10 degrees) at 17 MPH (15 knots; 7.7 m/s)
Visibility: 6 or more miles 10+ km)
Ceiling: at least 12,000 feet AGL
Clouds: few clouds at 2000 feet AGL
scattered clouds at 5000 feet AGL
Weather: no significant weather forecast for this period
Text: PROB30
Forecast period: 0600 to 1500 UTC 20 January 2020
Forecast type: TEMPORARY: The following changes expected for less than half the time period
Visibility: 3 miles (5 km)
Ceiling: at least 12,000 feet AGL
Clouds: scattered clouds at 2000 feet AGL
Weather: SHRA  (rain showers)

MAPA DE AEROPUERTO

INFORMACIÓN DE PISTA
Pista 04 Longitud 9776 ft Ancho 148 ft
Elevación 11 ft Umbral desplazado 0 ft Rumbo de pista 45
Pista 22 Longitud 9776 ft Ancho 148 ft
Elevación 6 ft Umbral desplazado 575 ft Rumbo de pista 225

FRECUANCIAS DEL AEROPUERTO
Tipo APP Nombre APP Frecuencia 121.2 MHZ
Tipo ATIS Nombre ATIS Frecuencia 126.55 MHZ
Tipo TWR Nombre TWR Frecuencia 119.4 MHZ

RADIO AYUDAS DEL AEROPUERTO
Tipo VOR-DME Nombre Larnaca Frecuencia 112800 KHZ
Tipo NDB Nombre Larnaca Frecuencia 432 KHZ